createdAt,value
2022-09-01T00:00:40.744Z,50.908138
2022-09-01T00:01:40.694Z,50.908119
2022-09-01T00:02:40.826Z,50.908123
2022-09-01T00:03:40.682Z,50.908142
2022-09-01T00:04:40.712Z,50.908119
2022-09-01T00:05:40.667Z,50.908096
2022-09-01T00:06:40.681Z,50.908154
2022-09-01T00:07:40.644Z,50.908127
2022-09-01T00:08:40.642Z,50.908115
2022-09-01T00:09:40.630Z,50.908112
2022-09-01T00:10:40.623Z,50.908115
2022-09-01T00:11:40.637Z,50.908115
2022-09-01T00:12:40.611Z,50.908138
2022-09-01T00:13:40.601Z,50.908157
2022-09-01T00:14:41.611Z,50.908157
2022-09-01T00:15:41.670Z,50.908142
2022-09-01T00:16:40.597Z,50.908073
2022-09-01T00:17:40.564Z,50.908104
2022-09-01T00:18:40.559Z,50.908127
2022-09-01T00:19:40.553Z,50.908146
2022-09-01T00:20:40.543Z,50.908154
2022-09-01T00:21:40.559Z,50.908119
2022-09-01T00:22:40.527Z,50.908096
2022-09-01T00:23:40.518Z,50.908119
2022-09-01T00:24:40.509Z,50.908138
2022-09-01T00:25:40.503Z,50.908131
2022-09-01T00:26:40.522Z,50.908066
2022-09-01T00:27:40.491Z,50.908123
2022-09-01T00:28:40.478Z,50.908085
2022-09-01T00:29:43.978Z,50.908161
2022-09-01T00:30:40.492Z,50.908134
2022-09-01T00:31:40.480Z,50.908127
2022-09-01T00:32:40.447Z,50.908134
2022-09-01T00:33:40.445Z,50.908112
2022-09-01T00:34:40.430Z,50.908165
2022-09-01T00:35:40.425Z,50.908146
2022-09-01T00:36:40.438Z,50.908058
2022-09-01T00:37:40.412Z,50.908119
2022-09-01T00:38:40.401Z,50.908100
2022-09-01T00:39:40.395Z,50.908123
2022-09-01T00:40:40.422Z,50.908211
2022-09-01T00:41:40.406Z,50.908188
2022-09-01T00:42:40.370Z,50.908150
2022-09-01T00:43:40.359Z,50.908165
2022-09-01T00:44:40.354Z,50.908165
2022-09-01T00:45:40.346Z,50.908112
2022-09-01T00:46:41.391Z,50.908123
2022-09-01T00:47:41.328Z,50.908142
2022-09-01T00:48:40.322Z,50.908112
2022-09-01T00:49:40.316Z,50.908157
2022-09-01T00:50:40.307Z,50.908127
2022-09-01T00:51:40.325Z,50.908173
2022-09-01T00:52:40.289Z,50.908150
2022-09-01T00:53:40.283Z,50.908157
2022-09-01T00:54:40.273Z,50.908169
2022-09-01T00:55:41.274Z,50.908161
2022-09-01T00:56:40.285Z,50.908218
2022-09-01T00:57:41.251Z,50.908234
2022-09-01T00:58:40.241Z,50.908081
2022-09-01T00:59:40.235Z,50.908035
2022-09-01T01:00:40.228Z,50.908054
2022-09-01T01:01:40.311Z,50.908115
2022-09-01T01:02:40.239Z,50.908073
2022-09-01T01:03:40.203Z,50.908096
2022-09-01T01:04:41.196Z,50.908199
2022-09-01T01:05:40.185Z,50.908169
2022-09-01T01:06:40.205Z,50.907990
2022-09-01T01:07:40.170Z,50.907852
2022-09-01T01:08:40.161Z,50.907799
2022-09-01T01:09:40.152Z,50.907993
2022-09-01T01:10:40.153Z,50.908051
2022-09-01T01:11:40.160Z,50.908081
2022-09-01T01:12:40.127Z,50.908096
2022-09-01T01:13:40.121Z,50.908089
2022-09-01T01:14:40.112Z,50.908241
2022-09-01T01:15:40.102Z,50.908195
2022-09-01T01:16:40.150Z,50.908035
2022-09-01T01:17:40.086Z,50.907932
2022-09-01T01:18:40.079Z,50.907967
2022-09-01T01:19:40.071Z,50.908295
2022-09-01T01:20:40.060Z,50.908085
2022-09-01T01:21:40.081Z,50.908058
2022-09-01T01:22:40.049Z,50.908016
2022-09-01T01:23:40.038Z,50.907860
2022-09-01T01:24:40.030Z,50.907951
2022-09-01T01:25:40.022Z,50.907993
2022-09-01T01:26:40.039Z,50.908024
2022-09-01T01:27:43.117Z,50.908089
2022-09-01T01:28:39.999Z,50.908134
2022-09-01T01:29:39.991Z,50.908104
2022-09-01T01:30:40.051Z,50.908104
2022-09-01T01:31:39.999Z,50.908066
2022-09-01T01:32:39.970Z,50.908062
2022-09-01T01:33:39.958Z,50.908024
2022-09-01T01:34:39.948Z,50.908070
2022-09-01T01:35:39.943Z,50.908104
2022-09-01T01:36:39.966Z,50.908077
2022-09-01T01:37:39.925Z,50.908031
2022-09-01T01:38:39.917Z,50.908062
2022-09-01T01:39:39.915Z,50.908108
2022-09-01T01:40:39.933Z,50.908001
2022-09-01T01:41:39.926Z,50.908035
2022-09-01T01:42:39.893Z,50.908073
2022-09-01T01:43:39.888Z,50.908066
2022-09-01T01:44:39.875Z,50.908062
2022-09-01T01:45:39.915Z,50.908096
2022-09-01T01:46:39.887Z,50.908073
2022-09-01T01:47:39.852Z,50.908077
2022-09-01T01:48:39.846Z,50.908081
2022-09-01T01:49:39.837Z,50.908066
2022-09-01T01:50:39.826Z,50.908081
2022-09-01T01:51:39.846Z,50.908096
2022-09-01T01:52:39.816Z,50.908073
2022-09-01T01:53:40.805Z,50.908031
2022-09-01T01:54:39.797Z,50.908108
2022-09-01T01:55:39.791Z,50.908081
2022-09-01T01:56:39.827Z,50.908051
2022-09-01T01:57:39.777Z,50.908062
2022-09-01T01:58:39.769Z,50.908089
2022-09-01T01:59:39.766Z,50.908096
2022-09-01T02:00:39.753Z,50.908112
2022-09-01T02:01:39.812Z,50.908089
2022-09-01T02:02:39.767Z,50.908085
2022-09-01T02:03:39.730Z,50.908112
2022-09-01T02:04:39.719Z,50.908127
2022-09-01T02:05:39.712Z,50.908100
2022-09-01T02:06:39.735Z,50.908077
2022-09-01T02:07:39.694Z,50.908077
2022-09-01T02:08:39.686Z,50.908127
2022-09-01T02:09:39.679Z,50.908119
2022-09-01T02:10:39.672Z,50.908131
2022-09-01T02:11:39.666Z,50.908138
2022-09-01T02:12:39.672Z,50.908138
2022-09-01T02:13:40.649Z,50.908173
2022-09-01T02:14:39.643Z,50.908115
2022-09-01T02:15:39.641Z,50.908115
2022-09-01T02:16:39.657Z,50.908123
2022-09-01T02:17:39.644Z,50.908108
2022-09-01T02:18:39.613Z,50.908104
2022-09-01T02:19:39.610Z,50.908119
2022-09-01T02:20:39.599Z,50.908112
2022-09-01T02:21:39.596Z,50.908092
2022-09-01T02:22:39.612Z,50.908112
2022-09-01T02:23:39.581Z,50.908131
2022-09-01T02:24:39.576Z,50.908127
2022-09-01T02:25:53.874Z,50.908127
2022-09-01T02:26:41.557Z,50.908127
2022-09-01T02:27:39.585Z,50.908123
2022-09-01T02:28:39.543Z,50.908131
2022-09-01T02:29:43.388Z,50.908123
2022-09-01T02:30:39.569Z,50.908119
2022-09-01T02:31:39.520Z,50.908146
2022-09-01T02:32:39.535Z,50.908134
2022-09-01T02:33:39.501Z,50.908100
2022-09-01T02:34:39.493Z,50.908123
2022-09-01T02:35:39.492Z,50.908138
2022-09-01T02:36:39.478Z,50.908142
2022-09-01T02:37:39.499Z,50.908131
2022-09-01T02:38:39.463Z,50.908131
2022-09-01T02:39:39.455Z,50.908173
2022-09-01T02:40:39.545Z,50.908138
2022-09-01T02:41:39.441Z,50.908131
2022-09-01T02:42:39.457Z,50.908123
2022-09-01T02:43:39.426Z,50.908138
2022-09-01T02:44:41.400Z,50.908127
2022-09-01T02:45:40.431Z,50.908096
2022-09-01T02:46:39.404Z,50.908134
2022-09-01T02:47:39.425Z,50.908115
2022-09-01T02:48:39.389Z,50.908119
2022-09-01T02:49:39.379Z,50.908112
2022-09-01T02:50:39.372Z,50.908123
2022-09-01T02:51:39.365Z,50.908123
2022-09-01T02:52:39.387Z,50.908112
2022-09-01T02:53:39.426Z,50.908028
2022-09-01T02:54:39.338Z,50.908051
2022-09-01T02:55:39.332Z,50.908089
2022-09-01T02:56:39.328Z,50.908081
2022-09-01T02:57:39.344Z,50.908062
2022-09-01T02:58:39.310Z,50.908035
2022-09-01T02:59:43.583Z,50.908066
2022-09-01T03:00:40.288Z,50.908127
2022-09-01T03:01:39.326Z,50.907997
2022-09-01T03:02:39.276Z,50.908024
2022-09-01T03:03:39.292Z,50.908100
2022-09-01T03:04:39.314Z,50.908127
2022-09-01T03:05:39.251Z,50.908146
2022-09-01T03:06:39.249Z,50.908070
2022-09-01T03:07:39.234Z,50.908066
2022-09-01T03:08:39.254Z,50.908089
2022-09-01T03:09:39.224Z,50.908127
2022-09-01T03:10:39.211Z,50.908131
2022-09-01T03:11:39.208Z,50.908112
2022-09-01T03:12:39.202Z,50.908070
2022-09-01T03:13:39.218Z,50.908119
2022-09-01T03:14:39.183Z,50.908119
2022-09-01T03:15:39.176Z,50.908138
2022-09-01T03:16:39.318Z,50.908100
2022-09-01T03:17:39.162Z,50.908115
2022-09-01T03:18:39.701Z,50.908123
2022-09-01T03:19:39.147Z,50.908123
2022-09-01T03:20:39.138Z,50.908119
2022-09-01T03:21:39.128Z,50.908108
2022-09-01T03:22:39.124Z,50.908150
2022-09-01T03:23:39.139Z,50.908119
2022-09-01T03:24:39.110Z,50.908131
2022-09-01T03:25:39.096Z,50.908134
2022-09-01T03:26:39.179Z,50.908134
2022-09-01T03:27:39.083Z,50.908146
2022-09-01T03:28:39.095Z,50.908119
2022-09-01T03:29:39.070Z,50.908081
2022-09-01T03:30:39.058Z,50.908051
2022-09-01T03:31:39.066Z,50.908131
2022-09-01T03:32:39.052Z,50.908077
2022-09-01T03:33:39.059Z,50.908104
2022-09-01T03:34:39.027Z,50.908157
2022-09-01T03:35:39.018Z,50.908161
2022-09-01T03:36:39.012Z,50.908100
2022-09-01T03:37:39.000Z,50.908138
2022-09-01T03:38:39.017Z,50.908157
2022-09-01T03:39:38.985Z,50.908134
2022-09-01T03:40:39.074Z,50.908108
2022-09-01T03:41:38.964Z,50.908222
2022-09-01T03:42:38.963Z,50.908112
2022-09-01T03:43:38.983Z,50.908112
2022-09-01T03:44:39.942Z,50.908134
2022-09-01T03:45:39.001Z,50.908112
2022-09-01T03:46:38.927Z,50.908131
2022-09-01T03:47:38.936Z,50.908131
2022-09-01T03:48:38.942Z,50.908173
2022-09-01T03:49:38.902Z,50.908199
2022-09-01T03:50:38.897Z,50.908157
2022-09-01T03:51:38.973Z,50.908154
2022-09-01T03:52:38.895Z,50.908112
2022-09-01T03:53:38.899Z,50.908154
2022-09-01T03:54:38.866Z,50.908154
2022-09-01T03:55:38.865Z,50.908131
2022-09-01T03:56:38.848Z,50.908100
2022-09-01T03:57:38.841Z,50.908104
2022-09-01T03:58:38.867Z,50.908150
2022-09-01T03:59:38.828Z,50.908218
2022-09-01T04:00:38.881Z,50.908211
2022-09-01T04:01:38.848Z,50.908169
2022-09-01T04:02:38.854Z,50.908138
2022-09-01T04:03:38.827Z,50.908184
2022-09-01T04:04:39.793Z,50.908134
2022-09-01T04:05:38.786Z,50.908161
2022-09-01T04:06:38.780Z,50.908127
2022-09-01T04:07:38.772Z,50.908318
2022-09-01T04:08:38.791Z,50.908142
2022-09-01T04:09:38.760Z,50.908123
2022-09-01T04:10:38.752Z,50.908100
2022-09-01T04:11:42.465Z,50.908115
2022-09-01T04:12:39.737Z,50.908085
2022-09-01T04:13:38.751Z,50.908070
2022-09-01T04:14:38.721Z,50.908119
2022-09-01T04:15:38.717Z,50.908112
2022-09-01T04:16:38.783Z,50.908085
2022-09-01T04:17:38.696Z,50.908085
2022-09-01T04:18:38.714Z,50.908119
2022-09-01T04:19:38.684Z,50.908165
2022-09-01T04:20:38.674Z,50.908115
2022-09-01T04:21:38.667Z,50.908100
2022-09-01T04:22:38.659Z,50.908150
2022-09-01T04:23:38.677Z,50.908096
2022-09-01T04:24:41.091Z,50.908131
2022-09-01T04:25:39.636Z,50.908123
2022-09-01T04:26:38.627Z,50.908165
2022-09-01T04:27:38.622Z,50.908104
2022-09-01T04:28:38.644Z,50.908108
2022-09-01T04:29:38.614Z,50.908089
2022-09-01T04:30:38.605Z,50.908112
2022-09-01T04:31:38.686Z,50.908081
2022-09-01T04:32:38.581Z,50.908154
2022-09-01T04:33:38.602Z,50.908134
2022-09-01T04:34:38.567Z,50.908127
2022-09-01T04:35:38.557Z,50.908127
2022-09-01T04:36:38.550Z,50.908127
2022-09-01T04:37:38.539Z,50.908142
2022-09-01T04:38:38.558Z,50.908138
2022-09-01T04:39:38.526Z,50.908134
2022-09-01T04:40:38.618Z,50.908154
2022-09-01T04:41:38.507Z,50.908127
2022-09-01T04:42:38.492Z,50.908138
2022-09-01T04:43:39.521Z,50.908150
2022-09-01T04:44:38.485Z,50.908150
2022-09-01T04:45:38.522Z,50.908112
2022-09-01T04:46:38.474Z,50.908123
2022-09-01T04:47:38.469Z,50.908154
2022-09-01T04:48:38.483Z,50.908146
2022-09-01T04:49:38.448Z,50.908150
2022-09-01T04:50:38.445Z,50.908157
2022-09-01T04:51:38.434Z,50.908134
2022-09-01T04:52:38.422Z,50.908154
2022-09-01T04:53:38.441Z,50.908165
2022-09-01T04:54:38.408Z,50.908169
2022-09-01T04:55:38.399Z,50.908161
2022-09-01T04:56:38.389Z,50.908146
2022-09-01T04:57:38.382Z,50.908134
2022-09-01T04:58:38.399Z,50.908085
2022-09-01T04:59:38.363Z,50.908096
2022-09-01T05:00:38.410Z,50.908112
2022-09-01T05:01:38.349Z,50.908112
2022-09-01T05:02:38.401Z,50.908119
2022-09-01T05:03:38.361Z,50.908157
2022-09-01T05:04:38.336Z,50.908165
2022-09-01T05:05:38.321Z,50.908150
2022-09-01T05:06:38.307Z,50.908089
2022-09-01T05:07:38.302Z,50.908127
2022-09-01T05:08:38.336Z,50.908123
2022-09-01T05:09:38.307Z,50.908089
2022-09-01T05:10:38.278Z,50.908081
2022-09-01T05:11:38.271Z,50.908089
2022-09-01T05:12:38.263Z,50.908104
2022-09-01T05:13:38.281Z,50.908108
2022-09-01T05:14:38.244Z,50.908081
2022-09-01T05:15:38.243Z,50.908112
2022-09-01T05:16:38.271Z,50.908115
2022-09-01T05:17:38.218Z,50.908070
2022-09-01T05:18:38.243Z,50.908077
2022-09-01T05:19:38.207Z,50.908123
2022-09-01T05:20:38.198Z,50.908134
2022-09-01T05:21:38.189Z,50.908119
2022-09-01T05:22:38.178Z,50.908062
2022-09-01T05:23:38.172Z,50.908031
2022-09-01T05:24:41.955Z,50.908051
2022-09-01T05:25:39.164Z,50.908066
2022-09-01T05:26:38.152Z,50.908058
2022-09-01T05:27:38.151Z,50.907986
2022-09-01T05:28:38.131Z,50.908077
2022-09-01T05:29:38.147Z,50.908104
2022-09-01T05:30:38.115Z,50.908092
2022-09-01T05:31:38.229Z,50.908131
2022-09-01T05:32:38.093Z,50.908142
2022-09-01T05:33:38.092Z,50.908173
2022-09-01T05:34:38.110Z,50.908161
2022-09-01T05:35:38.078Z,50.908161
2022-09-01T05:36:38.058Z,50.908173
2022-09-01T05:37:39.058Z,50.908169
2022-09-01T05:38:38.052Z,50.908134
2022-09-01T05:39:38.118Z,50.908146
2022-09-01T05:40:38.116Z,50.908184
2022-09-01T05:41:38.031Z,50.908169
2022-09-01T05:42:38.021Z,50.908161
2022-09-01T05:43:38.011Z,50.908146
2022-09-01T05:44:38.030Z,50.908146
2022-09-01T05:45:56.523Z,50.908146
2022-09-01T05:46:40.102Z,50.908115
2022-09-01T05:47:37.985Z,50.908138
2022-09-01T05:48:37.976Z,50.908146
2022-09-01T05:49:37.991Z,50.908123
2022-09-01T05:50:37.952Z,50.908138
2022-09-01T05:51:46.423Z,50.908150
2022-09-01T05:52:39.940Z,50.908157
2022-09-01T05:53:37.934Z,50.908157
2022-09-01T05:54:37.961Z,50.908142
2022-09-01T05:55:37.917Z,50.908127
2022-09-01T05:56:41.409Z,50.908104
2022-09-01T05:57:39.905Z,50.908081
2022-09-01T05:59:39.917Z,50.908165
2022-09-01T06:00:37.879Z,50.908184
2022-09-01T06:01:37.924Z,50.908192
2022-09-01T06:02:37.973Z,50.908134
2022-09-01T06:03:38.464Z,50.908169
2022-09-01T06:04:37.879Z,50.908165
2022-09-01T06:05:37.845Z,50.908192
2022-09-01T06:06:54.994Z,50.908199
2022-09-01T06:07:39.868Z,50.908161
2022-09-01T06:08:39.148Z,50.908169
2022-09-01T06:09:37.840Z,50.908104
2022-09-01T06:10:37.814Z,50.908016
2022-09-01T06:11:37.801Z,50.908127
2022-09-01T06:12:37.791Z,50.908142
2022-09-01T06:13:37.790Z,50.908123
2022-09-01T06:14:37.808Z,50.908035
2022-09-01T06:15:37.775Z,50.908112
2022-09-01T06:16:37.841Z,50.908142
2022-09-01T06:17:37.754Z,50.908161
2022-09-01T06:18:37.745Z,50.908195
2022-09-01T06:19:37.768Z,50.908165
2022-09-01T06:20:37.730Z,50.908165
2022-09-01T06:21:37.722Z,50.908142
2022-09-01T06:22:37.721Z,50.908142
2022-09-01T06:23:37.710Z,50.908154
2022-09-01T06:24:37.728Z,50.908138
2022-09-01T06:25:37.697Z,50.908161
2022-09-01T06:26:37.688Z,50.908176
2022-09-01T06:27:37.679Z,50.908104
2022-09-01T06:28:37.674Z,50.908119
2022-09-01T06:29:37.692Z,50.908157
2022-09-01T06:30:38.661Z,50.908085
2022-09-01T06:31:37.697Z,50.908031
2022-09-01T06:32:37.651Z,50.908031
2022-09-01T06:33:37.642Z,50.908062
2022-09-01T06:34:37.661Z,50.908108
2022-09-01T06:35:37.620Z,50.908112
2022-09-01T06:36:37.617Z,50.908085
2022-09-01T06:37:37.614Z,50.908096
2022-09-01T06:38:37.601Z,50.908115
2022-09-01T06:39:37.619Z,50.908146
2022-09-01T06:40:37.709Z,50.908115
2022-09-01T06:41:37.581Z,50.908039
2022-09-01T06:42:37.604Z,50.908016
2022-09-01T06:43:37.569Z,50.908058
2022-09-01T06:44:41.039Z,50.908081
2022-09-01T06:45:38.560Z,50.908112
2022-09-01T06:46:37.598Z,50.908115
2022-09-01T06:47:37.543Z,50.908047
2022-09-01T06:48:37.537Z,50.908092
2022-09-01T06:49:37.559Z,50.908077
2022-09-01T06:51:39.522Z,50.908169
2022-09-01T06:53:39.506Z,50.908115
2022-09-01T06:54:37.498Z,50.908127
2022-09-01T06:55:37.519Z,50.908112
2022-09-01T06:56:44.664Z,50.908123
2022-09-01T06:58:08.330Z,50.908134
2022-09-01T06:58:39.475Z,50.908215
2022-09-01T06:59:37.464Z,50.908173
2022-09-01T07:00:37.498Z,50.908138
2022-09-01T07:01:39.233Z,50.908115
2022-09-01T07:02:37.494Z,50.908150
2022-09-01T07:03:37.438Z,50.908104
2022-09-01T07:04:37.427Z,50.908115
2022-09-01T07:08:05.319Z,50.908127
2022-09-01T07:09:19.074Z,50.908115
2022-09-01T07:11:19.641Z,50.908104
2022-09-01T07:12:39.371Z,50.908096
2022-09-01T07:13:38.806Z,50.908092
2022-09-01T07:16:31.931Z,50.908115
2022-09-01T07:16:41.925Z,50.908112
2022-09-01T07:17:39.335Z,50.908104
2022-09-01T07:18:37.328Z,50.908138
2022-09-01T07:19:52.524Z,50.908108
2022-09-01T07:21:02.877Z,50.908104
2022-09-01T07:21:40.759Z,50.908066
2022-09-01T07:23:03.357Z,50.908157
2022-09-01T07:24:07.681Z,50.908089
2022-09-01T07:24:39.282Z,50.908070
2022-09-01T07:26:00.446Z,50.908146
2022-09-01T07:26:46.736Z,50.908138
2022-09-01T07:27:40.624Z,50.908073
2022-09-01T07:28:37.406Z,50.908092
2022-09-01T07:29:37.245Z,50.908127
2022-09-01T07:30:37.267Z,50.908142
2022-09-01T07:32:44.170Z,50.908081
2022-09-01T07:32:44.263Z,50.907951
2022-09-01T07:33:42.612Z,50.908096
2022-09-01T07:34:38.935Z,50.908112
2022-09-01T07:35:38.232Z,50.908123
2022-09-01T07:37:16.120Z,50.908119
2022-09-01T07:39:55.412Z,50.908073
2022-09-01T07:42:31.192Z,50.908096
2022-09-01T07:43:39.145Z,50.908096
2022-09-01T07:44:37.141Z,50.908108
2022-09-01T07:45:37.158Z,50.908085
2022-09-01T07:46:37.720Z,50.908089
2022-09-01T07:47:53.772Z,50.908085
2022-09-01T07:50:11.968Z,50.908104
2022-09-01T07:51:07.469Z,50.908119
2022-09-01T07:51:39.248Z,50.908058
2022-09-01T07:52:37.082Z,50.908001
2022-09-01T07:53:37.076Z,50.908081
2022-09-01T07:54:37.066Z,50.908108
2022-09-01T07:55:37.084Z,50.908089
2022-09-01T07:56:40.206Z,50.908089
2022-09-01T07:57:38.051Z,50.908028
2022-09-01T07:58:37.037Z,50.908058
2022-09-01T07:59:37.035Z,50.908047
2022-09-01T08:00:37.048Z,50.908066
2022-09-01T08:01:37.107Z,50.908092
2022-09-01T08:02:37.066Z,50.908096
2022-09-01T08:03:37.005Z,50.908077
2022-09-01T08:04:36.992Z,50.908085
2022-09-01T08:05:37.014Z,50.908108
2022-09-01T08:06:38.634Z,50.908154
2022-09-01T08:07:51.774Z,50.908127
2022-09-01T08:08:38.964Z,50.908112
2022-09-01T08:09:38.205Z,50.908112
2022-09-01T08:10:37.973Z,50.908089
2022-09-01T08:12:01.567Z,50.908085
2022-09-01T08:12:38.940Z,50.908112
2022-09-01T08:13:41.402Z,50.908165
2022-09-01T08:14:38.926Z,50.908123
2022-09-01T08:16:05.694Z,50.908123
2022-09-01T08:16:40.293Z,50.908131
2022-09-01T08:17:54.228Z,50.908146
2022-09-01T08:18:54.075Z,50.908123
2022-09-01T08:19:38.885Z,50.908089
2022-09-01T08:20:36.903Z,50.908146
2022-09-01T08:21:36.869Z,50.908115
2022-09-01T08:22:36.856Z,50.908138
2022-09-01T08:23:36.857Z,50.908123
2022-09-01T08:24:36.846Z,50.908096
2022-09-01T08:25:36.863Z,50.908115
2022-09-01T08:26:36.839Z,50.908104
2022-09-01T08:27:36.820Z,50.908096
2022-09-01T08:28:36.818Z,50.908112
2022-09-01T08:29:36.816Z,50.908123
2022-09-01T08:30:36.836Z,50.908104
2022-09-01T08:31:36.887Z,50.908104
2022-09-01T08:32:36.783Z,50.908115
2022-09-01T08:33:36.778Z,50.908131
2022-09-01T08:34:36.768Z,50.908138
2022-09-01T08:35:36.786Z,50.908096
2022-09-01T08:36:37.754Z,50.908089
2022-09-01T08:37:36.746Z,50.908112
2022-09-01T08:38:36.742Z,50.908131
2022-09-01T08:39:36.734Z,50.908165
2022-09-01T08:40:36.795Z,50.908104
2022-09-01T08:41:36.723Z,50.908039
2022-09-01T08:42:36.711Z,50.908112
2022-09-01T08:43:36.703Z,50.908112
2022-09-01T08:44:36.693Z,50.908115
2022-09-01T08:45:36.685Z,50.908108
2022-09-01T08:46:36.773Z,50.908146
2022-09-01T08:47:56.012Z,50.908119
2022-09-01T08:49:45.500Z,50.908127
2022-09-01T08:50:38.669Z,50.908112
2022-09-01T08:51:36.640Z,50.908104
2022-09-01T08:52:36.627Z,50.908127
2022-09-01T08:53:36.623Z,50.908077
2022-09-01T08:54:36.619Z,50.908066
2022-09-01T08:55:36.631Z,50.907963
2022-09-01T08:56:36.593Z,50.908062
2022-09-01T08:57:36.592Z,50.908077
2022-09-01T08:58:36.588Z,50.908108
2022-09-01T08:59:36.580Z,50.908180
2022-09-01T09:00:36.594Z,50.908123
2022-09-01T09:01:36.586Z,50.908131
2022-09-01T09:02:36.658Z,50.908115
2022-09-01T09:03:40.932Z,50.908169
2022-09-01T09:04:37.542Z,50.908123
2022-09-01T09:05:36.553Z,50.908138
2022-09-01T09:06:36.520Z,50.908131
2022-09-01T09:07:36.503Z,50.908092
2022-09-01T09:08:37.503Z,50.908096
2022-09-01T09:09:36.498Z,50.908070
2022-09-01T09:10:36.521Z,50.908089
2022-09-01T09:11:36.484Z,50.908134
2022-09-01T09:12:49.086Z,50.908138
2022-09-01T09:13:37.460Z,50.908089
2022-09-01T09:14:36.454Z,50.908104
2022-09-01T09:15:36.522Z,50.908112
2022-09-01T09:16:36.443Z,50.908157
2022-09-01T09:17:36.434Z,50.908127
2022-09-01T09:18:39.938Z,50.908119
2022-09-01T09:19:36.422Z,50.908123
2022-09-01T09:20:36.439Z,50.908161
2022-09-01T09:21:36.401Z,50.908142
2022-09-01T09:22:36.396Z,50.908173
2022-09-01T09:23:36.396Z,50.908115
2022-09-01T09:24:37.072Z,50.908092
2022-09-01T09:25:36.398Z,50.908154
2022-09-01T09:26:43.499Z,50.908165
2022-09-01T09:27:38.366Z,50.908089
2022-09-01T09:28:36.353Z,50.908173
2022-09-01T09:29:36.342Z,50.908085
2022-09-01T09:30:36.428Z,50.908119
2022-09-01T09:31:37.528Z,50.908119
2022-09-01T09:33:06.516Z,50.908112
2022-09-01T09:33:51.128Z,50.908154
2022-09-01T09:34:38.302Z,50.908092
2022-09-01T09:35:36.331Z,50.908039
2022-09-01T09:36:36.317Z,50.908073
2022-09-01T09:37:36.295Z,50.908119
2022-09-01T09:38:36.272Z,50.908176
2022-09-01T09:39:36.263Z,50.908127
2022-09-01T09:40:53.300Z,50.908432
2022-09-01T09:41:38.306Z,50.908279
2022-09-01T09:42:36.773Z,50.908295
2022-09-01T09:43:37.239Z,50.908085
2022-09-01T09:44:36.223Z,50.908005
2022-09-01T09:45:36.215Z,50.907936
2022-09-01T09:46:36.325Z,50.907974
2022-09-01T09:47:43.674Z,50.908043
2022-09-01T09:48:38.189Z,50.908092
2022-09-01T09:49:42.226Z,50.908081
2022-09-01T09:50:38.175Z,50.908112
2022-09-01T09:51:36.199Z,50.908157
2022-09-01T09:52:36.166Z,50.908180
2022-09-01T09:53:36.156Z,50.908314
2022-09-01T09:54:36.147Z,50.908447
2022-09-01T09:55:36.144Z,50.908298
2022-09-01T09:56:36.184Z,50.908291
2022-09-01T09:57:37.126Z,50.908291
2022-09-01T09:58:36.120Z,50.908138
2022-09-01T09:59:57.181Z,50.908150
2022-09-01T10:00:38.122Z,50.908226
2022-09-01T10:01:36.161Z,50.908226
2022-09-01T10:02:36.101Z,50.908333
2022-09-01T10:03:36.140Z,50.908390
2022-09-01T10:04:36.079Z,50.908226
2022-09-01T10:05:36.070Z,50.908188
2022-09-01T10:06:36.088Z,50.908211
2022-09-01T10:07:36.056Z,50.908119
2022-09-01T10:08:36.045Z,50.908199
2022-09-01T10:09:36.043Z,50.908226
2022-09-01T10:10:36.033Z,50.908165
2022-09-01T10:11:36.123Z,50.908157
2022-09-01T10:12:37.015Z,50.908176
2022-09-01T10:13:36.010Z,50.908112
2022-09-01T10:14:51.967Z,50.908096
2022-09-01T10:15:38.000Z,50.908466
2022-09-01T10:16:36.066Z,50.908264
2022-09-01T10:17:36.350Z,50.908199
2022-09-01T10:18:37.128Z,50.908165
2022-09-01T10:19:36.109Z,50.908131
2022-09-01T10:20:35.955Z,50.908131
2022-09-01T10:21:35.973Z,50.908119
2022-09-01T10:22:35.944Z,50.908134
2022-09-01T10:23:35.934Z,50.908092
2022-09-01T10:24:38.923Z,50.908089
2022-09-01T10:25:35.918Z,50.908054
2022-09-01T10:26:35.936Z,50.908077
2022-09-01T10:27:35.902Z,50.908066
2022-09-01T10:28:35.891Z,50.908024
2022-09-01T10:29:47.513Z,50.908077
2022-09-01T10:30:36.924Z,50.908092
2022-09-01T10:31:35.892Z,50.908043
2022-09-01T10:32:38.672Z,50.908066
2022-09-01T10:33:37.843Z,50.907978
2022-09-01T10:34:36.847Z,50.908070
2022-09-01T10:35:39.734Z,50.908150
2022-09-01T10:36:35.871Z,50.908146
2022-09-01T10:37:35.825Z,50.908203
2022-09-01T10:38:35.813Z,50.908180
2022-09-01T10:39:42.891Z,50.908127
2022-09-01T10:40:43.517Z,50.908066
2022-09-01T10:41:36.831Z,50.908154
2022-09-01T10:42:35.779Z,50.908127
2022-09-01T10:43:37.995Z,50.908237
2022-09-01T10:44:36.769Z,50.908268
2022-09-01T10:45:35.848Z,50.908234
2022-09-01T10:46:41.915Z,50.908138
2022-09-01T10:47:37.874Z,50.908123
2022-09-01T10:48:46.319Z,50.908104
2022-09-01T10:49:37.729Z,50.908119
2022-09-01T10:50:35.932Z,50.908123
2022-09-01T10:51:38.850Z,50.908150
2022-09-01T10:52:37.737Z,50.908085
2022-09-01T10:53:36.701Z,50.908115
2022-09-01T10:54:38.503Z,50.908131
2022-09-01T10:55:36.678Z,50.908173
2022-09-01T10:56:36.838Z,50.908161
2022-09-01T10:57:41.893Z,50.908108
2022-09-01T10:59:43.501Z,50.908119
2022-09-01T11:00:37.722Z,50.908096
2022-09-01T11:01:47.846Z,50.908043
2022-09-01T11:02:46.370Z,50.908031
2022-09-01T11:03:42.112Z,50.908073
2022-09-01T11:04:36.688Z,50.908066
2022-09-01T11:05:35.596Z,50.908070
2022-09-01T11:06:35.613Z,50.908062
2022-09-01T11:08:00.446Z,50.908081
2022-09-01T11:08:37.573Z,50.908077
2022-09-01T11:09:35.564Z,50.908043
2022-09-01T11:10:35.849Z,50.908112
2022-09-01T11:11:35.580Z,50.908073
2022-09-01T11:12:35.533Z,50.908127
2022-09-01T11:13:35.531Z,50.908115
2022-09-01T11:14:35.524Z,50.908142
2022-09-01T11:15:35.553Z,50.908073
2022-09-01T11:16:51.893Z,50.908104
2022-09-01T11:17:37.572Z,50.907997
2022-09-01T11:18:35.489Z,50.908077
2022-09-01T11:19:36.487Z,50.908077
2022-09-01T11:20:35.477Z,50.907913
2022-09-01T11:21:35.503Z,50.908047
2022-09-01T11:22:36.234Z,50.908161
2022-09-01T11:23:35.450Z,50.908165
2022-09-01T11:24:36.054Z,50.908146
2022-09-01T11:25:39.093Z,50.908115
2022-09-01T11:26:36.460Z,50.908077
2022-09-01T11:27:35.419Z,50.908070
2022-09-01T11:28:35.424Z,50.908054
2022-09-01T11:29:35.407Z,50.908096
2022-09-01T11:30:35.392Z,50.908085
2022-09-01T11:31:35.497Z,50.908092
2022-09-01T11:32:35.407Z,50.908081
2022-09-01T11:33:35.373Z,50.908096
2022-09-01T11:34:35.401Z,50.908089
2022-09-01T11:35:35.358Z,50.908077
2022-09-01T11:36:35.390Z,50.908104
2022-09-01T11:37:35.399Z,50.908081
2022-09-01T11:38:35.339Z,50.908073
2022-09-01T11:39:35.327Z,50.908115